createdAt,value
2017-11-05T00:00:39.814Z,7.32
2017-11-05T00:03:06.205Z,7.26
2017-11-05T00:05:32.684Z,7.17
2017-11-05T00:07:59.118Z,7.21
2017-11-05T00:10:25.553Z,7.30
2017-11-05T00:12:51.988Z,7.34
2017-11-05T00:15:18.422Z,7.38
2017-11-05T00:17:44.863Z,7.45
2017-11-05T00:20:11.315Z,7.46
2017-11-05T00:22:38.460Z,7.47
2017-11-05T00:25:04.984Z,7.43
2017-11-05T00:27:31.418Z,7.34
2017-11-05T00:29:57.960Z,7.29
2017-11-05T00:32:24.372Z,7.34
2017-11-05T00:34:50.816Z,7.21
2017-11-05T00:37:17.286Z,7.15
2017-11-05T00:39:44.498Z,7.09
2017-11-05T00:42:10.945Z,7.06
2017-11-05T00:44:37.474Z,7.14
2017-11-05T00:47:03.935Z,7.21
2017-11-05T00:49:30.315Z,7.28
2017-11-05T00:51:56.783Z,7.33
2017-11-05T00:54:23.222Z,7.35
2017-11-05T00:56:50.435Z,7.38
2017-11-05T00:59:16.933Z,7.39
2017-11-05T01:01:43.344Z,7.39
2017-11-05T01:04:09.733Z,7.42
2017-11-05T01:06:36.110Z,7.37
2017-11-05T01:09:02.553Z,7.41
2017-11-05T01:11:29.091Z,7.45
2017-11-05T01:13:56.234Z,7.40
2017-11-05T01:16:22.669Z,7.41
2017-11-05T01:18:49.214Z,7.42
2017-11-05T01:21:15.752Z,7.41
2017-11-05T01:23:42.289Z,7.41
2017-11-05T01:26:08.826Z,7.36
2017-11-05T01:28:35.243Z,7.33
2017-11-05T01:31:02.487Z,7.21
2017-11-05T01:33:28.940Z,7.37
2017-11-05T01:35:55.374Z,7.42
2017-11-05T01:38:21.736Z,7.42
2017-11-05T01:40:48.183Z,7.38
2017-11-05T01:43:14.518Z,7.41
2017-11-05T01:45:40.883Z,7.42
2017-11-05T01:48:08.171Z,7.41
2017-11-05T01:50:34.597Z,7.38
2017-11-05T01:53:01.041Z,7.42
2017-11-05T01:55:27.429Z,7.41
2017-11-05T01:57:53.815Z,7.37
2017-11-05T02:00:20.250Z,7.37
2017-11-05T02:02:46.668Z,7.39
2017-11-05T02:05:13.912Z,7.33
2017-11-05T02:07:40.364Z,7.49
2017-11-05T02:10:06.902Z,7.50
2017-11-05T02:12:33.328Z,7.51
2017-11-05T02:14:59.763Z,7.53
2017-11-05T02:17:26.096Z,7.55
2017-11-05T02:19:52.530Z,7.40
2017-11-05T02:22:19.666Z,7.61
2017-11-05T02:24:46.119Z,7.64
2017-11-05T02:27:12.551Z,7.64
2017-11-05T02:29:38.986Z,7.70
2017-11-05T02:32:05.421Z,7.73
2017-11-05T02:34:31.864Z,7.72
2017-11-05T02:36:58.291Z,7.77
2017-11-05T02:39:25.552Z,7.81
2017-11-05T02:41:51.987Z,7.86
2017-11-05T02:44:18.414Z,7.93
2017-11-05T02:46:44.857Z,7.92
2017-11-05T02:49:11.302Z,7.90
2017-11-05T02:51:37.725Z,7.90
2017-11-05T02:54:04.172Z,7.89
2017-11-05T02:56:31.405Z,7.85
2017-11-05T02:58:57.841Z,7.82
2017-11-05T03:01:24.216Z,7.78
2017-11-05T03:03:50.709Z,7.71
2017-11-05T03:06:17.152Z,7.73
2017-11-05T03:08:43.579Z,7.65
2017-11-05T03:11:10.022Z,7.72
2017-11-05T03:13:37.173Z,7.70
2017-11-05T03:16:03.600Z,7.65
2017-11-05T03:18:29.932Z,7.57
2017-11-05T03:20:56.367Z,7.51
2017-11-05T03:23:22.695Z,7.44
2017-11-05T03:25:49.031Z,7.38
2017-11-05T03:28:15.398Z,7.33
2017-11-05T03:30:42.588Z,7.25
2017-11-05T03:33:09.038Z,7.14
2017-11-05T03:35:35.456Z,7.04
2017-11-05T03:38:01.899Z,6.95
2017-11-05T03:40:28.359Z,6.87
2017-11-05T03:42:54.690Z,6.90
2017-11-05T03:45:21.131Z,6.77
2017-11-05T03:47:48.296Z,6.84
2017-11-05T03:50:14.709Z,6.77
2017-11-05T03:52:41.152Z,6.73
2017-11-05T03:55:07.568Z,6.62
2017-11-05T03:57:34.012Z,6.48
2017-11-05T04:00:00.447Z,6.29
2017-11-05T04:02:26.881Z,6.38
2017-11-05T04:04:54.141Z,6.41
2017-11-05T04:07:20.674Z,6.28
2017-11-05T04:09:47.119Z,6.22
2017-11-05T04:12:13.554Z,6.16
2017-11-05T04:14:39.988Z,6.07
2017-11-05T04:17:06.347Z,6.06
2017-11-05T04:19:32.855Z,5.98
2017-11-05T04:22:00.008Z,5.96
2017-11-05T04:24:26.439Z,5.91
2017-11-05T04:26:52.870Z,5.82
2017-11-05T04:29:19.305Z,5.87
2017-11-05T04:31:45.740Z,5.92
2017-11-05T04:34:12.201Z,5.97
2017-11-05T04:36:38.617Z,5.98
2017-11-05T04:39:05.870Z,6.11
2017-11-05T04:41:32.268Z,6.22
2017-11-05T04:43:58.742Z,6.28
2017-11-05T04:46:25.168Z,6.27
2017-11-05T04:48:51.530Z,6.30
2017-11-05T04:51:17.931Z,6.23
2017-11-05T04:53:44.387Z,6.06
2017-11-05T04:56:11.619Z,5.94
2017-11-05T04:58:38.054Z,6.00
2017-11-05T05:01:04.513Z,6.06
2017-11-05T05:03:30.930Z,6.14
2017-11-05T05:05:57.290Z,6.18
2017-11-05T05:08:23.684Z,6.27
2017-11-05T05:10:50.130Z,6.31
2017-11-05T05:13:17.277Z,6.29
2017-11-05T05:15:43.610Z,6.37
2017-11-05T05:18:10.046Z,6.36
2017-11-05T05:20:36.375Z,6.38
2017-11-05T05:23:02.846Z,6.33
2017-11-05T05:25:29.246Z,6.36
2017-11-05T05:27:55.680Z,6.40
2017-11-05T05:30:22.934Z,6.46
2017-11-05T05:32:49.301Z,6.43
2017-11-05T05:35:15.838Z,6.44
2017-11-05T05:37:42.212Z,6.44
2017-11-05T05:40:08.653Z,6.43
2017-11-05T05:42:35.103Z,6.50
2017-11-05T05:45:01.515Z,6.55
2017-11-05T05:47:32.519Z,6.61
2017-11-05T05:49:58.924Z,6.64
2017-11-05T05:52:25.352Z,6.63
2017-11-05T05:54:51.785Z,6.63
2017-11-05T05:57:18.946Z,6.55
2017-11-05T05:59:45.380Z,6.62
2017-11-05T06:02:11.750Z,6.68
2017-11-05T06:04:38.249Z,6.73
2017-11-05T06:07:04.676Z,6.79
2017-11-05T06:09:31.082Z,6.86
2017-11-05T06:11:57.545Z,6.97
2017-11-05T06:14:24.696Z,7.03
2017-11-05T06:16:51.154Z,7.21
2017-11-05T06:19:17.498Z,7.32
2017-11-05T06:21:43.893Z,7.38
2017-11-05T06:24:10.341Z,7.27
2017-11-05T06:26:36.760Z,7.57
2017-11-05T06:29:03.205Z,7.71
2017-11-05T06:31:30.436Z,7.83
2017-11-05T06:33:56.887Z,7.75
2017-11-05T06:36:23.324Z,8.07
2017-11-05T06:38:49.693Z,8.18
2017-11-05T06:41:16.092Z,8.16
2017-11-05T06:43:42.638Z,8.35
2017-11-05T06:46:09.072Z,8.43
2017-11-05T06:48:36.224Z,8.53
2017-11-05T06:51:02.650Z,8.63
2017-11-05T06:53:29.086Z,8.72
2017-11-05T06:55:55.525Z,8.76
2017-11-05T06:58:21.965Z,8.80
2017-11-05T07:00:48.390Z,8.93
2017-11-05T07:03:14.824Z,9.08
2017-11-05T07:05:42.084Z,9.17
2017-11-05T07:08:08.535Z,9.22
2017-11-05T07:10:34.955Z,9.30
2017-11-05T07:13:01.382Z,9.37
2017-11-05T07:15:27.817Z,9.43
2017-11-05T07:17:54.250Z,9.57
2017-11-05T07:20:20.685Z,9.64
2017-11-05T07:22:47.846Z,9.78
2017-11-05T07:25:14.281Z,9.87
2017-11-05T07:27:40.707Z,9.87
2017-11-05T07:30:07.142Z,9.92
2017-11-05T07:32:33.586Z,10.00
2017-11-05T07:35:00.010Z,10.12
2017-11-05T07:37:26.558Z,10.22
2017-11-05T07:39:53.605Z,10.32
2017-11-05T07:42:20.039Z,10.38
2017-11-05T07:44:46.481Z,10.50
2017-11-05T07:47:12.901Z,10.62
2017-11-05T07:49:39.354Z,10.76
2017-11-05T07:52:05.770Z,10.88
2017-11-05T07:54:32.315Z,10.93
2017-11-05T07:56:59.394Z,10.93
2017-11-05T07:59:25.790Z,10.92
2017-11-05T08:01:52.123Z,10.73
2017-11-05T08:04:18.526Z,10.93
2017-11-05T08:06:45.000Z,11.12
2017-11-05T08:09:11.362Z,11.28
2017-11-05T08:11:37.698Z,11.41
2017-11-05T08:14:04.910Z,11.53
2017-11-05T08:16:31.345Z,11.49
2017-11-05T08:18:57.789Z,11.54
2017-11-05T08:21:24.223Z,11.64
2017-11-05T08:23:50.587Z,11.71
2017-11-05T08:26:16.925Z,11.77
2017-11-05T08:28:43.390Z,11.83
2017-11-05T08:31:10.575Z,11.82
2017-11-05T08:33:37.002Z,11.89
2017-11-05T08:36:03.407Z,11.86
2017-11-05T08:38:29.879Z,11.95
2017-11-05T08:40:56.305Z,12.02
2017-11-05T08:43:22.677Z,12.16
2017-11-05T08:45:49.036Z,12.20
2017-11-05T08:48:16.206Z,12.31
2017-11-05T08:50:42.659Z,12.42
2017-11-05T08:53:09.093Z,12.53
2017-11-05T08:55:35.407Z,12.64
2017-11-05T08:58:01.861Z,12.78
2017-11-05T09:00:28.332Z,12.96
2017-11-05T09:02:54.860Z,13.03
2017-11-05T09:05:21.993Z,13.17
2017-11-05T09:07:48.419Z,13.25
2017-11-05T09:10:14.862Z,13.28
2017-11-05T09:12:41.293Z,13.36
2017-11-05T09:15:07.723Z,13.43
2017-11-05T09:17:34.054Z,13.49
2017-11-05T09:20:00.492Z,13.63
2017-11-05T09:22:27.652Z,13.66
2017-11-05T09:24:54.077Z,13.80
2017-11-05T09:27:20.541Z,13.91
2017-11-05T09:29:46.946Z,13.90
2017-11-05T09:32:13.266Z,14.08
2017-11-05T09:34:39.713Z,14.24
2017-11-05T09:37:06.167Z,14.36
2017-11-05T09:39:33.302Z,14.43
2017-11-05T09:41:59.744Z,14.34
2017-11-05T09:44:26.067Z,14.34
2017-11-05T09:46:52.512Z,14.42
2017-11-05T09:49:18.936Z,14.38
2017-11-05T09:51:45.379Z,14.22
2017-11-05T09:54:11.805Z,14.08
2017-11-05T09:56:39.068Z,14.14
2017-11-05T09:59:05.430Z,14.29
2017-11-05T10:01:32.049Z,14.43
2017-11-05T10:03:58.393Z,14.49
2017-11-05T10:06:24.884Z,14.45
2017-11-05T10:08:51.341Z,14.60
2017-11-05T10:11:17.715Z,14.77
2017-11-05T10:13:44.931Z,14.62
2017-11-05T10:16:11.367Z,14.74
2017-11-05T10:18:37.791Z,14.97
2017-11-05T10:21:04.122Z,15.01
2017-11-05T10:23:30.565Z,15.10
2017-11-05T10:25:57.101Z,15.21
2017-11-05T10:28:23.528Z,15.30
2017-11-05T10:30:50.687Z,15.31
2017-11-05T10:33:17.115Z,15.28
2017-11-05T10:35:43.557Z,15.26
2017-11-05T10:38:09.994Z,15.04
2017-11-05T10:40:36.351Z,15.18
2017-11-05T10:43:02.853Z,15.14
2017-11-05T10:45:29.287Z,15.21
2017-11-05T10:47:56.440Z,15.21
2017-11-05T10:50:22.885Z,15.33
2017-11-05T10:52:49.310Z,15.47
2017-11-05T10:55:15.746Z,15.76
2017-11-05T10:57:42.090Z,16.04
2017-11-05T11:00:08.514Z,16.34
2017-11-05T11:02:34.957Z,16.65
2017-11-05T11:05:02.097Z,16.86
2017-11-05T11:07:28.598Z,17.15
2017-11-05T11:09:55.095Z,17.25
2017-11-05T11:12:21.614Z,17.49
2017-11-05T11:14:48.043Z,17.78
2017-11-05T11:17:14.438Z,18.23
2017-11-05T11:19:40.917Z,18.41
2017-11-05T11:22:08.080Z,18.45
2017-11-05T11:24:34.495Z,18.52
2017-11-05T11:27:00.930Z,19.14
2017-11-05T11:29:27.331Z,19.43
2017-11-05T11:31:53.674Z,19.66
2017-11-05T11:34:20.140Z,19.89
2017-11-05T11:36:46.567Z,19.94
2017-11-05T11:39:13.717Z,19.48
2017-11-05T11:41:40.166Z,19.04
2017-11-05T11:44:06.595Z,19.55
2017-11-05T11:46:33.021Z,20.03
2017-11-05T11:48:59.455Z,20.37
2017-11-05T11:51:25.866Z,20.75
2017-11-05T11:53:52.308Z,21.39
2017-11-05T11:56:19.411Z,22.07
2017-11-05T11:58:45.920Z,22.58
2017-11-05T12:01:12.445Z,22.52
2017-11-05T12:03:38.884Z,22.01
2017-11-05T12:06:05.222Z,21.96
2017-11-05T12:08:31.675Z,22.08
2017-11-05T12:10:58.085Z,22.52
2017-11-05T12:13:25.237Z,23.44
2017-11-05T12:15:51.670Z,23.80
2017-11-05T12:18:18.105Z,23.42
2017-11-05T12:20:44.540Z,23.87
2017-11-05T12:23:10.983Z,24.20
2017-11-05T12:25:37.413Z,24.63
2017-11-05T12:28:03.750Z,25.13
2017-11-05T12:30:31.004Z,25.55
2017-11-05T12:32:57.431Z,24.64
2017-11-05T12:35:23.865Z,24.05
2017-11-05T12:37:50.301Z,24.33
2017-11-05T12:40:16.734Z,24.97
2017-11-05T12:42:43.178Z,25.43
2017-11-05T12:45:09.604Z,25.80
2017-11-05T12:47:36.869Z,26.19
2017-11-05T12:50:03.314Z,26.21
2017-11-05T12:52:29.727Z,26.42
2017-11-05T12:54:56.170Z,26.36
2017-11-05T12:57:22.604Z,26.59
2017-11-05T12:59:49.039Z,27.00
2017-11-05T13:02:15.399Z,27.39
2017-11-05T13:04:42.625Z,27.25
2017-11-05T13:07:09.059Z,27.15
2017-11-05T13:09:35.428Z,27.38
2017-11-05T13:12:01.908Z,27.64
2017-11-05T13:14:28.356Z,27.71
2017-11-05T13:16:54.793Z,27.76
2017-11-05T13:19:21.124Z,27.68
2017-11-05T13:21:48.376Z,27.65
2017-11-05T13:24:14.915Z,27.74
2017-11-05T13:26:41.246Z,27.04
2017-11-05T13:29:07.645Z,26.99
2017-11-05T13:31:34.051Z,26.72
2017-11-05T13:34:00.447Z,25.94
2017-11-05T13:36:26.882Z,26.27
2017-11-05T13:38:53.972Z,26.54
2017-11-05T13:41:20.367Z,26.40
2017-11-05T13:43:46.807Z,26.66
2017-11-05T13:46:13.243Z,26.52
2017-11-05T13:48:39.679Z,26.10
2017-11-05T13:51:06.105Z,25.66
2017-11-05T13:53:32.540Z,25.46
2017-11-05T13:55:59.692Z,25.73
2017-11-05T13:58:26.125Z,26.11
2017-11-05T14:00:52.678Z,25.34
2017-11-05T14:03:19.086Z,25.10
2017-11-05T14:05:45.430Z,25.28
2017-11-05T14:08:11.864Z,25.00
2017-11-05T14:10:38.313Z,24.80
2017-11-05T14:13:05.348Z,24.60
2017-11-05T14:15:31.782Z,24.58
2017-11-05T14:17:58.114Z,24.40
2017-11-05T14:20:24.557Z,24.17
2017-11-05T14:22:51.086Z,24.09
2017-11-05T14:25:17.726Z,23.68
2017-11-05T14:27:44.161Z,23.75
2017-11-05T14:30:11.424Z,23.37
2017-11-05T14:32:37.851Z,23.60
2017-11-05T14:35:04.283Z,23.53
2017-11-05T14:37:30.720Z,23.45
2017-11-05T14:39:57.154Z,23.04
2017-11-05T14:42:23.590Z,22.18
2017-11-05T14:44:50.031Z,21.24
2017-11-05T14:47:17.335Z,20.97
2017-11-05T14:49:43.822Z,20.76
2017-11-05T14:52:10.251Z,19.90
2017-11-05T14:54:36.685Z,19.01
2017-11-05T14:57:03.119Z,17.96
2017-11-05T14:59:29.571Z,17.37
2017-11-05T15:01:55.986Z,17.12
2017-11-05T15:04:23.147Z,16.69
2017-11-05T15:06:49.574Z,16.30
2017-11-05T15:09:15.904Z,15.93
2017-11-05T15:11:42.308Z,15.64
2017-11-05T15:14:08.796Z,15.20
2017-11-05T15:16:35.209Z,15.00
2017-11-05T15:19:01.648Z,14.67
2017-11-05T15:21:28.901Z,14.53
2017-11-05T15:23:55.334Z,14.34
2017-11-05T15:26:21.768Z,14.20
2017-11-05T15:28:48.211Z,13.99
2017-11-05T15:31:14.635Z,13.89
2017-11-05T15:33:41.078Z,13.61
2017-11-05T15:36:07.448Z,13.61
2017-11-05T15:38:34.661Z,13.48
2017-11-05T15:41:01.102Z,13.37
2017-11-05T15:43:27.538Z,13.23
2017-11-05T15:45:53.971Z,13.11
2017-11-05T15:48:20.383Z,13.00
2017-11-05T15:50:46.824Z,12.90
2017-11-05T15:53:13.268Z,12.76
2017-11-05T15:55:40.402Z,12.54
2017-11-05T15:58:06.844Z,12.39
2017-11-05T16:00:33.286Z,12.37
2017-11-05T16:02:59.729Z,12.25
2017-11-05T16:05:26.158Z,12.22
2017-11-05T16:07:52.591Z,12.18
2017-11-05T16:10:19.031Z,12.15
2017-11-05T16:12:46.174Z,12.15
2017-11-05T16:15:12.619Z,12.14
2017-11-05T16:17:39.046Z,12.03
2017-11-05T16:20:05.481Z,11.92
2017-11-05T16:22:31.922Z,11.73
2017-11-05T16:24:58.350Z,11.53
2017-11-05T16:27:24.904Z,11.45
2017-11-05T16:29:51.870Z,11.42
2017-11-05T16:32:18.338Z,11.35
2017-11-05T16:34:44.764Z,11.30
2017-11-05T16:37:11.249Z,11.23
2017-11-05T16:39:37.674Z,11.08
2017-11-05T16:42:04.108Z,11.05
2017-11-05T16:44:30.522Z,11.03
2017-11-05T16:46:57.806Z,10.88
2017-11-05T16:49:24.159Z,10.70
2017-11-05T16:51:50.650Z,10.59
2017-11-05T16:54:17.222Z,10.58
2017-11-05T16:56:43.647Z,10.64
2017-11-05T16:59:10.084Z,10.57
2017-11-05T17:01:36.509Z,10.27
2017-11-05T17:04:03.774Z,10.19
2017-11-05T17:06:30.205Z,10.09
2017-11-05T17:08:56.530Z,10.13
2017-11-05T17:11:22.979Z,10.18
2017-11-05T17:13:49.399Z,10.24
2017-11-05T17:16:15.842Z,10.19
2017-11-05T17:18:42.206Z,10.07
2017-11-05T17:21:09.365Z,9.91
2017-11-05T17:23:35.827Z,9.78
2017-11-05T17:26:02.187Z,9.73
2017-11-05T17:28:28.621Z,9.73
2017-11-05T17:30:55.065Z,9.57
2017-11-05T17:33:21.457Z,9.76
2017-11-05T17:35:47.927Z,9.64
2017-11-05T17:38:15.085Z,9.42
2017-11-05T17:40:41.448Z,9.15
2017-11-05T17:43:07.787Z,9.13
2017-11-05T17:45:34.157Z,9.11
2017-11-05T17:48:00.579Z,9.08
2017-11-05T17:50:27.045Z,9.15
2017-11-05T17:52:53.505Z,9.19
2017-11-05T17:55:20.742Z,9.18
2017-11-05T17:57:47.106Z,9.25
2017-11-05T18:00:13.602Z,9.22
2017-11-05T18:02:40.047Z,9.18
2017-11-05T18:05:06.480Z,9.09
2017-11-05T18:07:32.864Z,8.94
2017-11-05T18:09:59.350Z,8.85
2017-11-05T18:12:26.502Z,8.61
2017-11-05T18:14:52.862Z,8.79
2017-11-05T18:17:19.260Z,8.89
2017-11-05T18:19:45.703Z,8.84
2017-11-05T18:22:12.155Z,8.83
2017-11-05T18:24:38.693Z,8.80
2017-11-05T18:27:05.212Z,8.86
2017-11-05T18:29:32.341Z,8.89
2017-11-05T18:31:58.892Z,8.86
2017-11-05T18:34:25.328Z,8.66
2017-11-05T18:36:51.780Z,8.53
2017-11-05T18:39:18.196Z,8.45
2017-11-05T18:41:44.632Z,8.46
2017-11-05T18:44:11.075Z,8.49
2017-11-05T18:46:38.225Z,8.43
2017-11-05T18:49:04.660Z,8.31
2017-11-05T18:51:31.095Z,8.34
2017-11-05T18:53:57.455Z,8.38
2017-11-05T18:56:23.853Z,8.39
2017-11-05T18:58:50.248Z,8.31
2017-11-05T19:01:16.722Z,8.14
2017-11-05T19:03:43.882Z,8.07
2017-11-05T19:06:10.315Z,8.08
2017-11-05T19:08:36.743Z,8.13
2017-11-05T19:11:03.189Z,8.12
2017-11-05T19:13:29.614Z,8.00
2017-11-05T19:15:56.046Z,8.01
2017-11-05T19:18:22.482Z,7.97
2017-11-05T19:20:49.633Z,7.97
2017-11-05T19:23:16.011Z,7.97
2017-11-05T19:25:42.400Z,7.96
2017-11-05T19:28:08.946Z,7.94
2017-11-05T19:30:35.380Z,7.89
2017-11-05T19:33:01.920Z,7.75
2017-11-05T19:35:28.352Z,7.78
2017-11-05T19:37:55.462Z,7.76
2017-11-05T19:40:21.869Z,7.69
2017-11-05T19:42:48.262Z,7.69
2017-11-05T19:45:14.697Z,7.45
2017-11-05T19:47:41.134Z,7.56
2017-11-05T19:50:07.533Z,7.52
2017-11-05T19:52:33.897Z,7.51
2017-11-05T19:55:01.161Z,7.54
2017-11-05T19:57:27.588Z,7.53
2017-11-05T19:59:54.029Z,7.49
2017-11-05T20:02:20.469Z,7.47
2017-11-05T20:04:46.891Z,7.40
2017-11-05T20:07:13.325Z,7.43
2017-11-05T20:09:39.657Z,7.47
2017-11-05T20:12:06.916Z,7.49
2017-11-05T20:14:33.359Z,7.46
2017-11-05T20:16:59.811Z,7.29
2017-11-05T20:19:26.164Z,7.22
2017-11-05T20:21:52.549Z,7.14
2017-11-05T20:24:18.921Z,7.04
2017-11-05T20:26:45.316Z,7.07
2017-11-05T20:29:12.569Z,7.18
2017-11-05T20:31:39.010Z,7.27
2017-11-05T20:34:05.438Z,7.26
2017-11-05T20:36:31.884Z,7.17
2017-11-05T20:38:58.317Z,7.08
2017-11-05T20:41:24.746Z,7.02
2017-11-05T20:43:51.179Z,6.98
2017-11-05T20:46:18.328Z,7.01
2017-11-05T20:48:44.783Z,7.03
2017-11-05T20:51:11.198Z,7.07
2017-11-05T20:53:37.633Z,7.14
2017-11-05T20:56:04.067Z,7.20
2017-11-05T20:58:30.522Z,7.17
2017-11-05T21:00:56.937Z,7.02
2017-11-05T21:03:24.089Z,6.96
2017-11-05T21:05:50.494Z,6.92
2017-11-05T21:08:16.964Z,6.99
2017-11-05T21:10:43.375Z,6.98
2017-11-05T21:13:09.829Z,6.99
2017-11-05T21:15:36.270Z,6.99
2017-11-05T21:18:02.696Z,6.95
2017-11-05T21:20:29.814Z,6.84
2017-11-05T21:22:56.290Z,6.73
2017-11-05T21:25:22.725Z,6.73
2017-11-05T21:27:49.159Z,6.78
2017-11-05T21:30:15.470Z,6.70
2017-11-05T21:32:41.782Z,6.59
2017-11-05T21:35:08.260Z,6.62
2017-11-05T21:37:35.471Z,6.69
2017-11-05T21:40:01.948Z,6.73
2017-11-05T21:42:28.382Z,6.77
2017-11-05T21:44:54.809Z,6.63
2017-11-05T21:47:21.251Z,6.55
2017-11-05T21:49:47.687Z,6.53
2017-11-05T21:52:14.011Z,6.54
2017-11-05T21:54:41.264Z,6.53
2017-11-05T21:57:07.596Z,6.55
2017-11-05T21:59:33.966Z,6.60
2017-11-05T22:02:00.364Z,6.64
2017-11-05T22:04:26.909Z,6.48
2017-11-05T22:06:53.247Z,6.18
2017-11-05T22:09:19.668Z,6.09
2017-11-05T22:11:46.818Z,6.10
2017-11-05T22:14:13.263Z,6.12
2017-11-05T22:16:39.689Z,6.14
2017-11-05T22:19:06.132Z,6.24
2017-11-05T22:21:32.558Z,6.01
2017-11-05T22:23:58.992Z,6.21
2017-11-05T22:26:25.427Z,6.19
2017-11-05T22:28:52.690Z,6.30
2017-11-05T22:31:19.163Z,6.31
2017-11-05T22:33:45.632Z,6.25
2017-11-05T22:36:12.076Z,6.20
2017-11-05T22:38:38.521Z,6.06
2017-11-05T22:41:04.967Z,6.06
2017-11-05T22:43:31.390Z,6.07
2017-11-05T22:45:58.553Z,5.94
2017-11-05T22:48:24.933Z,5.93
2017-11-05T22:50:51.375Z,5.81
2017-11-05T22:53:17.855Z,5.95
2017-11-05T22:55:44.213Z,5.99
2017-11-05T22:58:10.578Z,6.01
2017-11-05T23:00:37.047Z,5.85
2017-11-05T23:03:04.186Z,5.68
2017-11-05T23:05:30.652Z,5.63
2017-11-05T23:07:57.069Z,5.74
2017-11-05T23:10:23.402Z,5.82
2017-11-05T23:12:49.774Z,5.91
2017-11-05T23:15:16.278Z,5.82
2017-11-05T23:17:42.706Z,5.60
2017-11-05T23:20:09.864Z,5.40
2017-11-05T23:22:36.300Z,5.39
2017-11-05T23:25:02.740Z,5.36
2017-11-05T23:27:29.160Z,5.47
2017-11-05T23:29:55.599Z,5.57
2017-11-05T23:32:22.039Z,5.58
2017-11-05T23:34:48.473Z,5.63
2017-11-05T23:37:15.646Z,5.58
2017-11-05T23:39:42.163Z,5.51
2017-11-05T23:42:08.588Z,5.56
2017-11-05T23:44:35.031Z,5.63
2017-11-05T23:47:01.443Z,5.64
2017-11-05T23:49:27.892Z,5.63
2017-11-05T23:51:54.335Z,5.60
2017-11-05T23:54:21.595Z,5.51
2017-11-05T23:56:47.986Z,5.49
2017-11-05T23:59:14.428Z,5.59
